Time;durP1;ratioP1;P1;durP2;ratioP2;P2;SDS_P1;SDS_P2;PMS_P1;PMS_P2;Temp;Humidity;BMP_temperature;BMP_pressure;BME280_temperature;BME280_humidity;BME280_pressure;Samples;Min_cycle;Max_cycle;Signal;HPM_P1;HPM_P2
2023/06/23 12:08:28;;;;;;;11.40;5.97;;;18.60;99.90;;;;;;5034492;28;20366;-59
2023/06/23 12:10:55;;;;;;;12.80;6.55;;;18.50;99.90;;;;;;5029614;28;20104;-56
2023/06/23 12:13:21;;;;;;;8.68;5.68;;;18.60;99.90;;;;;;5033425;28;20060;-56
2023/06/23 12:15:47;;;;;;;10.27;6.75;;;18.80;99.90;;;;;;5028478;28;20026;-54
2023/06/23 12:18:14;;;;;;;8.32;5.93;;;18.90;99.90;;;;;;5032354;28;20052;-57
2023/06/23 12:20:42;;;;;;;8.23;5.68;;;19.10;99.90;;;;;;5025328;28;20045;-57
2023/06/23 12:23:13;;;;;;;6.57;5.15;;;19.20;99.90;;;;;;5025466;28;20706;-56
2023/06/23 12:25:44;;;;;;;6.70;5.20;;;19.30;99.90;;;;;;5031075;28;20045;-57
2023/06/23 12:28:17;;;;;;;7.68;5.30;;;19.40;99.90;;;;;;5024332;28;20593;-57
2023/06/23 12:30:47;;;;;;;9.85;5.55;;;19.50;99.90;;;;;;5028091;28;20042;-60
2023/06/23 12:33:15;;;;;;;5.75;4.63;;;19.50;99.90;;;;;;5033583;28;20413;-56
2023/06/23 12:36:04;;;;;;;6.47;4.53;;;19.50;99.90;;;;;;5029331;28;20033;-57
2023/06/23 12:38:32;;;;;;;7.65;5.43;;;19.50;99.90;;;;;;5030904;28;20132;-59
2023/06/23 12:41:18;;;;;;;6.85;5.20;;;19.50;99.90;;;;;;5028938;28;20044;-57
2023/06/23 12:43:45;;;;;;;9.82;4.80;;;19.50;99.90;;;;;;5029242;28;20044;-58
2023/06/23 12:46:12;;;;;;;10.13;5.20;;;19.60;99.90;;;;;;5026576;28;20091;-57
2023/06/23 12:48:44;;;;;;;8.73;5.45;;;19.50;99.90;;;;;;5030559;28;20029;-55
2023/06/23 12:51:11;;;;;;;5.85;4.63;;;19.50;99.90;;;;;;5030587;28;20102;-59
2023/06/23 12:53:37;;;;;;;6.35;4.70;;;19.50;99.90;;;;;;5030011;28;20088;-59
2023/06/23 12:56:03;;;;;;;10.75;4.90;;;19.50;99.90;;;;;;5031375;28;20092;-59
2023/06/23 12:58:29;;;;;;;5.32;4.40;;;19.60;99.90;;;;;;5031087;28;20460;-57
2023/06/23 13:00:55;;;;;;;5.13;4.18;;;19.60;99.90;;;;;;5025142;28;20034;-58
2023/06/23 13:03:21;;;;;;;5.90;4.72;;;19.60;99.90;;;;;;5031633;28;20062;-59
2023/06/23 13:05:47;;;;;;;7.47;4.97;;;19.60;99.90;;;;;;5029166;28;20057;-58
2023/06/23 13:08:14;;;;;;;6.05;4.22;;;19.60;99.90;;;;;;5032046;28;20033;-58
2023/06/23 13:10:41;;;;;;;6.15;4.10;;;19.60;99.90;;;;;;5029710;28;20474;-56
2023/06/23 13:13:11;;;;;;;5.40;3.58;;;19.60;99.90;;;;;;5014097;28;20034;-56
2023/06/23 13:15:37;;;;;;;5.07;3.13;;;19.50;99.90;;;;;;5024316;28;20029;-57
2023/06/23 13:18:04;;;;;;;4.57;3.50;;;19.40;99.90;;;;;;5024434;28;20045;-56
2023/06/23 13:20:30;;;;;;;4.97;2.78;;;19.40;99.90;;;;;;5012240;28;20489;-58
2023/06/23 13:22:57;;;;;;;6.88;3.65;;;19.30;99.90;;;;;;5013273;28;20144;-62
2023/06/23 13:25:22;;;;;;;3.45;3.03;;;19.20;99.90;;;;;;5018179;28;20119;-57
2023/06/23 13:27:48;;;;;;;5.28;3.30;;;19.10;99.90;;;;;;5015994;28;20128;-59
2023/06/23 13:30:14;;;;;;;4.50;3.33;;;19.10;99.90;;;;;;5017990;28;20477;-56
2023/06/23 13:32:40;;;;;;;6.07;3.50;;;19.00;99.90;;;;;;5015069;28;20045;-57
2023/06/23 13:35:07;;;;;;;5.03;3.63;;;19.00;99.90;;;;;;5015303;28;20394;-58
2023/06/23 13:37:34;;;;;;;5.72;3.40;;;19.00;99.90;;;;;;5017472;28;20048;-59
2023/06/23 13:40:02;;;;;;;5.03;3.55;;;18.90;99.90;;;;;;5000782;28;20038;-57
2023/06/23 13:42:29;;;;;;;5.57;4.05;;;18.90;99.90;;;;;;5019335;28;20313;-54
2023/06/23 13:44:55;;;;;;;4.65;3.47;;;19.00;99.90;;;;;;5015434;28;20080;-56
2023/06/23 13:47:21;;;;;;;6.80;3.55;;;19.00;99.90;;;;;;5016997;28;20526;-58
2023/06/23 13:49:47;;;;;;;5.53;3.65;;;19.00;99.90;;;;;;5015542;28;20789;-58
2023/06/23 13:52:13;;;;;;;6.63;3.95;;;19.00;99.90;;;;;;5014148;28;20025;-57
2023/06/23 13:54:39;;;;;;;3.92;3.30;;;19.00;99.90;;;;;;5017154;28;20040;-58
2023/06/23 13:57:06;;;;;;;5.80;3.90;;;19.00;99.90;;;;;;5013089;28;20034;-58
2023/06/23 13:59:32;;;;;;;6.57;3.33;;;19.00;99.90;;;;;;5016976;28;20037;-58
2023/06/23 14:01:57;;;;;;;4.13;3.28;;;19.00;99.90;;;;;;5015591;28;20160;-63
2023/06/23 14:04:23;;;;;;;4.70;3.13;;;19.00;99.90;;;;;;5017018;28;20112;-58
2023/06/23 14:06:49;;;;;;;5.18;3.83;;;19.00;99.90;;;;;;5014712;28;20040;-58
2023/06/23 14:09:16;;;;;;;4.40;3.60;;;19.00;99.90;;;;;;5013945;28;20493;-57
2023/06/23 14:11:42;;;;;;;5.32;3.60;;;19.00;99.90;;;;;;5016276;28;20537;-56
2023/06/23 14:14:09;;;;;;;6.10;3.15;;;19.00;99.90;;;;;;5015013;28;20034;-59
2023/06/23 14:16:35;;;;;;;4.13;3.20;;;19.00;99.90;;;;;;5016583;28;20104;-58
2023/06/23 14:19:01;;;;;;;3.63;3.20;;;19.10;99.90;;;;;;5015435;28;20084;-56
2023/06/23 14:21:27;;;;;;;5.53;4.20;;;19.10;99.90;;;;;;5016039;28;20041;-58
2023/06/23 14:23:53;;;;;;;5.32;3.75;;;19.10;99.90;;;;;;5012707;28;20041;-56
2023/06/23 14:26:19;;;;;;;4.72;3.28;;;19.20;99.90;;;;;;5013680;28;20048;-59
2023/06/23 14:28:45;;;;;;;5.05;3.38;;;19.20;99.90;;;;;;5015968;28;20029;-58
2023/06/23 14:31:11;;;;;;;4.45;3.72;;;19.20;99.90;;;;;;5015600;28;20029;-59
2023/06/23 14:33:36;;;;;;;7.43;3.40;;;19.30;99.90;;;;;;5016893;28;20100;-58
2023/06/23 14:36:03;;;;;;;5.38;3.40;;;19.30;99.90;;;;;;5013480;28;20120;-59
2023/06/23 14:38:29;;;;;;;6.43;3.80;;;19.30;99.90;;;;;;4996824;28;20030;-60
2023/06/23 14:40:56;;;;;;;6.10;3.92;;;19.40;99.90;;;;;;5016376;28;20059;-57
2023/06/23 14:43:22;;;;;;;5.22;3.70;;;19.40;99.90;;;;;;5015279;28;20040;-57
2023/06/23 14:45:50;;;;;;;6.38;3.80;;;19.40;99.90;;;;;;5011615;28;20045;-59
2023/06/23 14:48:16;;;;;;;4.35;3.45;;;19.40;99.90;;;;;;5012253;28;20030;-60
2023/06/23 14:50:42;;;;;;;4.25;3.50;;;19.50;99.90;;;;;;5012547;28;20044;-60
2023/06/23 14:53:08;;;;;;;4.97;3.60;;;19.50;99.90;;;;;;5013677;28;20040;-61
2023/06/23 14:55:35;;;;;;;4.90;3.67;;;19.50;99.90;;;;;;5013475;28;20647;-61
2023/06/23 14:58:04;;;;;;;4.95;3.70;;;19.50;99.90;;;;;;4995654;28;20429;-62
2023/06/23 15:00:30;;;;;;;7.57;4.20;;;19.50;99.90;;;;;;5016787;28;20025;-62
2023/06/23 15:02:55;;;;;;;6.10;4.05;;;19.50;99.90;;;;;;5012236;28;20044;-59
2023/06/23 15:05:21;;;;;;;5.38;3.85;;;19.60;99.90;;;;;;5015441;28;20045;-59
2023/06/23 15:07:49;;;;;;;4.82;3.65;;;19.60;99.90;;;;;;5014415;28;20041;-59
2023/06/23 15:10:15;;;;;;;6.35;3.67;;;19.60;99.90;;;;;;5016183;28;20473;-60
2023/06/23 15:12:41;;;;;;;5.22;3.50;;;19.60;99.90;;;;;;5013546;28;20156;-57
2023/06/23 15:15:08;;;;;;;5.75;3.85;;;19.70;99.90;;;;;;5011926;28;20885;-59
2023/06/23 15:17:34;;;;;;;5.30;4.30;;;19.70;99.90;;;;;;5016088;28;20034;-58
2023/06/23 15:20:00;;;;;;;4.40;3.63;;;19.70;99.90;;;;;;5009898;28;20077;-60
2023/06/23 15:22:26;;;;;;;5.20;3.70;;;19.70;99.90;;;;;;5015704;28;20056;-61
2023/06/23 15:24:52;;;;;;;4.55;3.55;;;19.70;99.90;;;;;;5013075;28;20083;-61
2023/06/23 15:27:18;;;;;;;6.35;3.95;;;19.70;99.90;;;;;;5017126;28;20094;-61
2023/06/23 15:29:43;;;;;;;5.70;3.72;;;19.80;99.90;;;;;;5015878;28;20030;-61
2023/06/23 15:32:09;;;;;;;6.40;3.40;;;19.70;99.90;;;;;;5016156;28;20021;-59
2023/06/23 15:34:35;;;;;;;4.45;3.53;;;19.70;99.90;;;;;;5012191;28;20037;-60
2023/06/23 15:37:02;;;;;;;4.03;3.53;;;19.70;99.90;;;;;;5012714;28;20128;-55
2023/06/23 15:39:31;;;;;;;3.50;3.20;;;19.70;99.90;;;;;;5015466;28;20075;-60
2023/06/23 15:41:57;;;;;;;5.53;3.67;;;19.70;99.90;;;;;;5011811;28;20120;-60
2023/06/23 15:44:27;;;;;;;4.47;3.50;;;19.70;99.90;;;;;;5012842;28;20111;-59
2023/06/23 15:46:53;;;;;;;4.78;3.78;;;19.60;99.90;;;;;;5010710;28;20034;-60
2023/06/23 15:49:19;;;;;;;7.20;3.80;;;19.70;99.90;;;;;;5014361;28;20452;-60
2023/06/23 15:51:45;;;;;;;4.72;3.92;;;19.60;99.90;;;;;;5012485;28;20033;-60
2023/06/23 15:54:14;;;;;;;4.78;4.25;;;19.60;99.90;;;;;;5016099;28;20029;-59
2023/06/23 15:56:39;;;;;;;4.30;3.90;;;19.70;99.90;;;;;;5012221;28;20041;-60
2023/06/23 15:59:06;;;;;;;7.40;4.20;;;19.70;99.90;;;;;;5012925;28;20034;-59
2023/06/23 16:01:31;;;;;;;4.32;3.92;;;19.70;99.90;;;;;;5015114;28;20044;-56
2023/06/23 16:03:57;;;;;;;5.95;4.55;;;19.60;99.90;;;;;;5012037;28;20049;-60
2023/06/23 16:06:24;;;;;;;5.60;4.00;;;19.70;99.90;;;;;;5014328;28;20090;-60
2023/06/23 16:08:50;;;;;;;6.20;3.78;;;19.70;99.90;;;;;;5012634;28;20093;-60
2023/06/23 16:11:15;;;;;;;3.70;3.40;;;19.70;99.90;;;;;;5014898;28;20033;-58
2023/06/23 16:13:41;;;;;;;4.63;4.20;;;19.70;99.90;;;;;;4989751;28;20041;-57
2023/06/23 16:16:07;;;;;;;4.38;3.97;;;19.70;99.90;;;;;;5010260;28;20549;-59
2023/06/23 16:18:33;;;;;;;5.47;3.83;;;19.60;99.90;;;;;;5014398;28;20033;-65
2023/06/23 16:20:59;;;;;;;4.25;3.83;;;19.60;99.90;;;;;;5012391;28;20026;-57
2023/06/23 16:23:25;;;;;;;4.80;4.28;;;19.60;99.90;;;;;;5015514;28;20037;-60
2023/06/23 16:25:51;;;;;;;4.75;4.05;;;19.60;99.90;;;;;;5012898;28;20245;-59
2023/06/23 16:28:17;;;;;;;6.35;4.03;;;19.60;99.90;;;;;;5014603;28;20116;-59
2023/06/23 16:30:43;;;;;;;5.80;4.20;;;19.60;99.90;;;;;;5012118;28;20487;-59
2023/06/23 16:33:09;;;;;;;5.55;4.55;;;19.60;99.90;;;;;;5011242;28;20025;-57
2023/06/23 16:35:35;;;;;;;6.97;4.50;;;19.60;99.90;;;;;;5014436;28;20083;-59
2023/06/23 16:38:00;;;;;;;4.53;3.72;;;19.60;99.90;;;;;;5011377;28;20034;-57
2023/06/23 16:40:26;;;;;;;5.03;4.50;;;19.70;99.90;;;;;;5013990;28;20034;-60
2023/06/23 16:42:54;;;;;;;8.35;5.22;;;19.60;99.90;;;;;;5012358;28;20502;-59
2023/06/23 16:45:20;;;;;;;6.15;5.00;;;19.70;99.90;;;;;;5014411;28;20261;-59
2023/06/23 16:47:47;;;;;;;6.15;5.53;;;19.70;99.90;;;;;;5011204;28;20092;-57
2023/06/23 16:50:14;;;;;;;6.25;5.53;;;19.70;99.90;;;;;;5012101;28;20120;-58
2023/06/23 16:52:40;;;;;;;7.20;6.00;;;19.70;99.90;;;;;;5014153;28;20425;-58
2023/06/23 16:55:07;;;;;;;7.07;5.93;;;19.70;99.90;;;;;;5016486;28;20030;-60
2023/06/23 16:57:33;;;;;;;6.10;5.15;;;19.70;99.90;;;;;;5016922;28;20048;-60
2023/06/23 17:00:00;;;;;;;7.90;6.25;;;19.70;99.90;;;;;;5015988;28;20116;-59
2023/06/23 17:02:25;;;;;;;6.40;5.03;;;19.80;99.90;;;;;;5017437;28;20056;-57
2023/06/23 17:04:52;;;;;;;7.47;5.90;;;19.80;99.90;;;;;;5016027;28;20034;-59
2023/06/23 17:07:18;;;;;;;8.90;6.45;;;19.80;99.90;;;;;;5014867;28;20382;-60
2023/06/23 17:09:43;;;;;;;7.13;6.20;;;19.80;99.90;;;;;;5017395;28;20041;-56
2023/06/23 17:12:10;;;;;;;7.95;6.50;;;19.90;99.90;;;;;;5016211;28;20026;-59
2023/06/23 17:14:36;;;;;;;8.73;6.72;;;19.90;99.90;;;;;;5016943;28;20044;-59
2023/06/23 17:17:02;;;;;;;9.43;6.70;;;20.00;99.90;;;;;;5014739;28;20104;-59
2023/06/23 17:19:27;;;;;;;10.32;7.75;;;20.00;99.90;;;;;;5016656;28;20041;-59
2023/06/23 17:21:53;;;;;;;8.70;6.43;;;20.00;99.90;;;;;;5016796;28;20041;-59
2023/06/23 17:24:19;;;;;;;9.38;6.97;;;20.00;99.90;;;;;;5015154;28;20091;-59
2023/06/23 17:26:45;;;;;;;8.55;7.03;;;20.00;99.90;;;;;;5016680;28;20489;-55
2023/06/23 17:29:11;;;;;;;7.72;6.78;;;20.00;99.90;;;;;;5015608;28;20034;-59
2023/06/23 17:31:39;;;;;;;9.27;7.25;;;20.00;99.90;;;;;;5014723;28;20029;-58
2023/06/23 17:34:06;;;;;;;9.40;7.22;;;20.00;99.90;;;;;;5014131;28;20030;-57
2023/06/23 17:36:32;;;;;;;11.23;7.45;;;20.10;99.90;;;;;;5016933;28;20788;-59
2023/06/23 17:38:57;;;;;;;11.05;7.40;;;20.00;99.90;;;;;;5014324;28;20025;-59
2023/06/23 17:41:25;;;;;;;9.15;6.75;;;20.10;99.90;;;;;;5016442;28;20034;-57
2023/06/23 17:43:51;;;;;;;8.07;6.57;;;20.00;99.90;;;;;;5014496;28;20108;-59
2023/06/23 17:46:17;;;;;;;11.35;7.03;;;20.10;99.90;;;;;;5017350;28;20485;-55
2023/06/23 17:48:44;;;;;;;7.13;6.18;;;20.00;99.90;;;;;;5015920;28;20029;-59
2023/06/23 17:51:10;;;;;;;9.68;7.18;;;20.10;99.90;;;;;;5017164;28;20025;-57
2023/06/23 17:53:36;;;;;;;9.35;7.07;;;20.10;99.90;;;;;;5015888;28;20121;-60
2023/06/23 17:56:03;;;;;;;8.65;7.57;;;20.10;99.90;;;;;;5017180;28;20026;-59
2023/06/23 17:58:29;;;;;;;10.50;7.40;;;20.10;99.90;;;;;;5015455;28;20107;-57
2023/06/23 18:00:55;;;;;;;8.80;6.72;;;20.10;99.90;;;;;;5014255;28;20054;-60
2023/06/23 18:03:21;;;;;;;9.55;7.30;;;20.10;99.90;;;;;;5017297;28;20145;-59
2023/06/23 18:05:48;;;;;;;8.57;6.97;;;20.10;99.90;;;;;;4997925;28;20136;-59
2023/06/23 18:08:13;;;;;;;10.07;7.35;;;20.00;99.90;;;;;;5016550;28;20493;-60
2023/06/23 18:10:39;;;;;;;8.85;7.13;;;20.10;99.90;;;;;;5015290;28;20034;-60
2023/06/23 18:13:05;;;;;;;10.43;7.80;;;20.00;99.90;;;;;;5017685;28;20503;-58
2023/06/23 18:15:31;;;;;;;10.52;8.55;;;20.00;99.90;;;;;;5015056;28;20041;-60
2023/06/23 18:17:57;;;;;;;10.65;8.15;;;20.00;99.90;;;;;;5014318;28;20496;-59
2023/06/23 18:20:23;;;;;;;9.80;8.65;;;20.00;99.90;;;;;;5017374;28;20527;-55
2023/06/23 18:22:48;;;;;;;10.13;7.50;;;20.00;99.90;;;;;;5015540;28;20072;-59
2023/06/23 18:25:14;;;;;;;9.13;7.20;;;20.00;99.90;;;;;;5017554;28;20092;-60
2023/06/23 18:27:42;;;;;;;8.55;7.05;;;19.90;99.90;;;;;;5014779;28;20042;-56
2023/06/23 18:30:10;;;;;;;9.05;6.68;;;19.90;99.90;;;;;;5017245;28;20469;-59
2023/06/23 18:35:04;;;;;;;7.70;6.55;;;19.90;99.90;;;;;;5013993;28;20022;-60
2023/06/23 18:37:29;;;;;;;9.05;7.03;;;19.90;99.90;;;;;;5015668;28;20038;-60
2023/06/23 18:39:56;;;;;;;8.75;7.03;;;19.90;99.90;;;;;;5014787;28;20048;-60
2023/06/23 18:42:23;;;;;;;9.20;6.80;;;20.00;99.90;;;;;;5016482;28;20774;-61
2023/06/23 18:44:49;;;;;;;10.63;6.85;;;19.90;99.90;;;;;;5013126;28;20042;-58
2023/06/23 18:47:15;;;;;;;8.80;7.70;;;19.90;99.90;;;;;;5018861;28;20777;-57
2023/06/23 18:49:40;;;;;;;8.95;7.07;;;19.90;99.90;;;;;;5013883;28;20038;-59
2023/06/23 18:52:07;;;;;;;7.28;6.45;;;19.90;99.90;;;;;;5013270;28;20026;-59
2023/06/23 18:54:33;;;;;;;9.15;6.72;;;19.90;99.90;;;;;;5005939;28;20034;-60
2023/06/23 18:56:59;;;;;;;8.15;6.60;;;19.90;99.90;;;;;;5012317;28;20048;-60
2023/06/23 18:59:26;;;;;;;10.38;6.78;;;19.90;99.90;;;;;;5007244;28;20143;-59
2023/06/23 19:01:52;;;;;;;7.88;6.55;;;19.90;99.90;;;;;;5011910;28;20553;-61
2023/06/23 19:04:18;;;;;;;8.10;6.63;;;19.90;99.90;;;;;;5018130;28;20039;-61
2023/06/23 19:06:44;;;;;;;9.07;6.78;;;19.90;99.90;;;;;;5012808;28;20038;-60
2023/06/23 19:09:10;;;;;;;7.55;6.65;;;19.90;99.90;;;;;;5016627;28;20199;-61
2023/06/23 19:11:36;;;;;;;7.93;6.70;;;19.90;99.90;;;;;;5013357;28;20041;-59
2023/06/23 19:14:02;;;;;;;6.68;5.68;;;19.80;99.90;;;;;;5013327;28;20521;-60
2023/06/23 19:16:28;;;;;;;6.57;5.85;;;19.80;99.90;;;;;;5017748;28;20881;-61
2023/06/23 19:18:56;;;;;;;6.47;5.85;;;19.80;99.90;;;;;;5010930;28;20033;-61
2023/06/23 19:21:22;;;;;;;9.15;7.22;;;19.80;99.90;;;;;;5016633;28;20044;-61
2023/06/23 19:23:48;;;;;;;6.60;5.72;;;19.80;99.90;;;;;;5017150;28;20501;-61
2023/06/23 19:26:15;;;;;;;8.20;6.55;;;19.80;99.90;;;;;;5019872;28;20413;-61
2023/06/23 19:28:40;;;;;;;9.43;6.85;;;19.70;99.90;;;;;;5012562;28;20029;-60
2023/06/23 19:31:07;;;;;;;7.43;6.55;;;19.70;99.90;;;;;;5014220;28;20072;-61
2023/06/23 19:33:33;;;;;;;10.00;7.20;;;19.80;99.90;;;;;;5016475;28;20104;-61
2023/06/23 19:35:59;;;;;;;8.73;6.95;;;19.70;99.90;;;;;;5014267;28;20141;-61
2023/06/23 19:38:25;;;;;;;9.20;6.88;;;19.80;99.90;;;;;;5018355;28;20033;-61
2023/06/23 19:40:51;;;;;;;8.38;7.18;;;19.80;99.90;;;;;;5013311;28;20033;-57
2023/06/23 19:43:18;;;;;;;8.05;7.13;;;19.80;99.90;;;;;;5016398;28;20067;-60
2023/06/23 19:45:44;;;;;;;9.10;7.50;;;19.80;99.90;;;;;;5013735;28;20048;-59
2023/06/23 19:48:10;;;;;;;9.43;7.22;;;19.70;99.90;;;;;;5013487;28;20040;-58
2023/06/23 19:50:36;;;;;;;9.15;7.53;;;19.70;99.90;;;;;;5017399;28;20095;-59
2023/06/23 19:53:03;;;;;;;8.25;6.55;;;19.70;99.90;;;;;;5013783;28;20705;-60
2023/06/23 19:55:30;;;;;;;9.63;7.10;;;19.70;99.90;;;;;;5015352;28;20033;-59
2023/06/23 19:57:57;;;;;;;7.78;6.90;;;19.70;99.90;;;;;;5014254;28;20368;-60
2023/06/23 20:00:23;;;;;;;8.38;6.40;;;19.70;99.90;;;;;;5015637;28;20080;-60
2023/06/23 20:02:49;;;;;;;8.93;7.25;;;19.70;99.90;;;;;;5013155;28;20069;-60
2023/06/23 20:05:15;;;;;;;6.38;5.75;;;19.70;99.90;;;;;;5014896;28;20064;-59
2023/06/23 20:07:41;;;;;;;7.75;6.45;;;19.70;99.90;;;;;;5015369;28;20041;-60
2023/06/23 20:10:07;;;;;;;8.85;6.28;;;19.70;99.90;;;;;;5014399;28;20026;-55
2023/06/23 20:12:33;;;;;;;7.38;6.40;;;19.70;99.90;;;;;;5014939;28;20042;-60
2023/06/23 20:15:00;;;;;;;9.55;6.72;;;19.60;99.90;;;;;;5014301;28;20526;-57
2023/06/23 20:17:26;;;;;;;6.03;5.40;;;19.60;99.90;;;;;;5014784;28;20424;-60
2023/06/23 20:19:52;;;;;;;7.32;6.57;;;19.60;99.90;;;;;;5014032;28;20042;-59
2023/06/23 20:22:18;;;;;;;7.25;6.20;;;19.60;99.90;;;;;;5012706;28;20061;-60
2023/06/23 20:24:43;;;;;;;6.70;5.95;;;19.60;99.90;;;;;;5014612;28;20087;-61
2023/06/23 20:27:09;;;;;;;9.80;7.07;;;19.50;99.90;;;;;;5015139;28;20037;-61
2023/06/23 20:29:37;;;;;;;6.68;5.60;;;19.50;99.90;;;;;;5017374;28;20059;-60
2023/06/23 20:32:03;;;;;;;7.00;5.80;;;19.50;99.90;;;;;;5018278;28;20533;-61
2023/06/23 20:34:29;;;;;;;7.10;6.40;;;19.50;99.90;;;;;;5018137;28;20424;-57
2023/06/23 20:36:55;;;;;;;6.63;6.03;;;19.40;99.90;;;;;;4999095;28;20038;-60
2023/06/23 20:39:21;;;;;;;8.07;6.05;;;19.40;99.90;;;;;;5018045;28;20036;-61
2023/06/23 20:41:47;;;;;;;7.65;6.10;;;19.30;99.90;;;;;;5018223;28;20748;-60
2023/06/23 20:44:12;;;;;;;9.38;6.13;;;19.30;99.90;;;;;;5014766;28;20497;-61
2023/06/23 20:46:38;;;;;;;7.70;6.07;;;19.30;99.90;;;;;;5017359;28;20037;-60
2023/06/23 20:49:05;;;;;;;11.27;6.38;;;19.30;99.90;;;;;;5018248;28;20026;-61
2023/06/23 20:51:30;;;;;;;8.27;5.95;;;19.30;99.90;;;;;;5017822;28;20030;-61
2023/06/23 20:53:56;;;;;;;8.35;6.32;;;19.20;99.90;;;;;;5021360;28;20029;-61
2023/06/23 20:56:22;;;;;;;8.40;5.82;;;19.20;99.90;;;;;;5019672;28;20026;-60
2023/06/23 20:58:48;;;;;;;7.72;5.90;;;19.20;99.90;;;;;;5016317;28;20040;-59
2023/06/23 21:01:13;;;;;;;11.00;6.50;;;19.20;99.90;;;;;;5016251;28;20030;-61
2023/06/23 21:03:39;;;;;;;6.65;6.05;;;19.20;99.90;;;;;;5017973;28;20030;-58
2023/06/23 21:06:05;;;;;;;8.57;5.75;;;19.10;99.90;;;;;;5017625;28;20032;-61
2023/06/23 21:08:34;;;;;;;6.22;5.38;;;19.10;99.90;;;;;;5017410;28;20417;-61
2023/06/23 21:10:59;;;;;;;7.40;5.82;;;19.10;99.90;;;;;;5018607;28;20034;-60
2023/06/23 21:13:25;;;;;;;7.43;6.20;;;19.10;99.90;;;;;;5017065;28;20116;-60
2023/06/23 21:15:51;;;;;;;7.80;5.90;;;19.10;99.90;;;;;;5013808;28;20030;-60
2023/06/23 21:18:18;;;;;;;6.93;6.05;;;19.10;99.90;;;;;;5017437;28;20840;-58
2023/06/23 21:20:44;;;;;;;8.80;6.95;;;19.00;99.90;;;;;;5017061;28;20037;-57
2023/06/23 21:23:10;;;;;;;7.40;6.15;;;19.00;99.90;;;;;;5017673;28;20413;-60
2023/06/23 21:25:36;;;;;;;6.55;5.45;;;19.00;99.90;;;;;;5019352;28;20025;-61
2023/06/23 21:28:02;;;;;;;7.15;6.10;;;19.00;99.90;;;;;;5014140;28;20181;-61
2023/06/23 21:30:28;;;;;;;7.13;5.95;;;19.00;99.90;;;;;;5018568;28;20029;-60
2023/06/23 21:32:54;;;;;;;10.02;6.13;;;19.00;99.90;;;;;;5015639;28;20519;-59
2023/06/23 21:35:20;;;;;;;7.38;5.97;;;18.90;99.90;;;;;;5015189;28;20037;-60
2023/06/23 21:37:46;;;;;;;7.32;6.50;;;18.90;99.90;;;;;;5006716;28;20026;-61
2023/06/23 21:40:21;;;;;;;7.13;6.25;;;18.90;99.90;;;;;;5014729;28;20030;-61
2023/06/23 21:42:47;;;;;;;8.02;7.20;;;18.90;99.90;;;;;;5017047;28;20038;-59
2023/06/23 21:45:13;;;;;;;9.05;6.35;;;18.90;99.90;;;;;;5017374;28;20040;-64
2023/06/23 21:47:39;;;;;;;8.43;6.93;;;18.90;99.90;;;;;;5017888;28;20033;-61
2023/06/23 21:50:06;;;;;;;8.75;6.88;;;18.90;99.90;;;;;;4996519;28;20493;-60
2023/06/23 21:52:32;;;;;;;8.10;6.15;;;18.90;99.90;;;;;;5015499;28;20033;-61
2023/06/23 21:54:59;;;;;;;8.70;7.20;;;18.90;99.90;;;;;;5011221;28;20114;-61
2023/06/23 21:57:24;;;;;;;9.35;6.60;;;18.80;99.90;;;;;;5006359;28;20711;-60
2023/06/23 21:59:50;;;;;;;9.70;6.78;;;18.80;99.90;;;;;;5016161;28;20069;-61
2023/06/23 22:02:16;;;;;;;8.43;7.22;;;18.80;99.90;;;;;;5019046;28;20031;-58
2023/06/23 22:04:42;;;;;;;7.95;6.95;;;18.80;99.90;;;;;;5014007;28;20056;-59
2023/06/23 22:07:08;;;;;;;8.63;7.20;;;18.80;99.90;;;;;;5014138;28;20034;-59
2023/06/23 22:09:34;;;;;;;8.88;7.40;;;18.80;99.90;;;;;;5018681;28;20075;-56
2023/06/23 22:12:00;;;;;;;10.00;8.27;;;18.70;99.90;;;;;;4996637;28;20652;-58
2023/06/23 22:14:26;;;;;;;8.93;7.47;;;18.70;99.90;;;;;;5018066;28;20033;-57
2023/06/23 22:16:54;;;;;;;9.63;7.95;;;18.70;99.90;;;;;;5013999;28;20490;-58
2023/06/23 22:19:21;;;;;;;10.20;8.00;;;18.70;99.90;;;;;;5017355;28;20034;-58
2023/06/23 22:21:47;;;;;;;10.13;8.38;;;18.70;99.90;;;;;;5015157;28;20136;-56
2023/06/23 22:24:14;;;;;;;11.60;7.93;;;18.70;99.90;;;;;;4999756;28;20025;-57
2023/06/23 22:26:40;;;;;;;9.30;8.15;;;18.70;99.90;;;;;;5014285;28;20037;-60
2023/06/23 22:29:06;;;;;;;10.07;8.32;;;18.70;99.90;;;;;;5014307;28;20033;-57
2023/06/23 22:31:32;;;;;;;10.77;8.48;;;18.70;99.90;;;;;;5017415;28;20048;-57
2023/06/23 22:33:58;;;;;;;13.10;9.23;;;18.80;99.90;;;;;;5014980;28;20034;-57
2023/06/23 22:36:24;;;;;;;13.35;9.20;;;18.80;99.90;;;;;;5017076;28;20033;-59
2023/06/23 22:38:49;;;;;;;15.68;11.05;;;18.80;99.90;;;;;;5014198;28;20046;-58
2023/06/23 22:41:15;;;;;;;14.98;10.88;;;18.80;99.90;;;;;;5016973;28;20040;-58
2023/06/23 22:43:41;;;;;;;12.98;10.02;;;18.90;99.90;;;;;;5013684;28;20053;-58
2023/06/23 22:46:07;;;;;;;12.52;10.35;;;18.90;99.90;;;;;;5014646;28;20038;-57
2023/06/23 22:48:32;;;;;;;13.35;10.45;;;18.90;99.90;;;;;;5017638;28;20041;-59
2023/06/23 22:50:58;;;;;;;12.32;9.57;;;18.90;99.90;;;;;;5010197;28;20887;-57
2023/06/23 22:53:24;;;;;;;13.48;11.07;;;18.90;99.90;;;;;;5016703;28;20043;-59
2023/06/23 22:55:50;;;;;;;16.52;9.75;;;18.90;99.90;;;;;;5014133;28;20569;-60
2023/06/23 22:58:16;;;;;;;15.23;11.45;;;18.90;99.90;;;;;;5016118;28;20035;-60
2023/06/23 23:00:42;;;;;;;12.82;10.65;;;18.90;99.90;;;;;;5013766;28;20029;-61
2023/06/23 23:03:08;;;;;;;16.92;11.20;;;18.90;99.90;;;;;;5014201;28;20807;-60
2023/06/23 23:05:33;;;;;;;13.68;10.68;;;18.80;99.90;;;;;;5016430;28;20412;-61
2023/06/23 23:08:00;;;;;;;15.32;11.38;;;18.80;99.90;;;;;;5011405;28;20034;-59
2023/06/23 23:10:28;;;;;;;20.75;13.73;;;18.80;99.90;;;;;;5018500;28;20033;-60
2023/06/23 23:12:54;;;;;;;15.85;12.30;;;18.80;99.90;;;;;;5013973;28;20049;-61
2023/06/23 23:15:21;;;;;;;13.80;11.48;;;18.80;99.90;;;;;;5018895;28;20029;-60
2023/06/23 23:17:48;;;;;;;14.80;12.40;;;18.80;99.90;;;;;;5012604;28;20099;-58
2023/06/23 23:20:15;;;;;;;18.60;13.77;;;18.80;99.90;;;;;;5014368;28;20087;-60
2023/06/23 23:22:41;;;;;;;20.63;13.02;;;18.70;99.90;;;;;;5015850;28;20528;-61
2023/06/23 23:25:07;;;;;;;15.15;12.55;;;18.70;99.90;;;;;;5014616;28;20036;-61
2023/06/23 23:27:37;;;;;;;17.33;13.27;;;18.70;99.90;;;;;;5014913;28;20072;-60
2023/06/23 23:30:07;;;;;;;14.40;11.98;;;18.70;99.90;;;;;;5015330;28;20030;-61
2023/06/23 23:32:37;;;;;;;15.68;12.32;;;18.70;99.90;;;;;;5013096;28;20037;-60
2023/06/23 23:35:07;;;;;;;16.20;12.48;;;18.70;99.90;;;;;;5016420;28;20128;-59
2023/06/23 23:37:33;;;;;;;15.20;12.20;;;18.70;99.90;;;;;;5012558;28;20116;-61
2023/06/23 23:39:59;;;;;;;17.75;13.50;;;18.70;99.90;;;;;;5012598;28;20136;-60
2023/06/23 23:42:25;;;;;;;15.73;13.10;;;18.60;99.90;;;;;;5014536;28;20515;-60
2023/06/23 23:44:51;;;;;;;18.70;13.45;;;18.60;99.90;;;;;;5012389;28;20132;-61
2023/06/23 23:47:16;;;;;;;17.13;14.38;;;18.60;99.90;;;;;;5016208;28;20033;-61
2023/06/23 23:49:42;;;;;;;15.68;11.80;;;18.60;99.90;;;;;;5012949;28;20114;-61
2023/06/23 23:52:08;;;;;;;19.65;14.52;;;18.60;99.90;;;;;;5016940;28;20520;-59
2023/06/23 23:54:34;;;;;;;17.75;13.90;;;18.50;99.90;;;;;;5012846;28;20034;-60
2023/06/23 23:56:59;;;;;;;16.55;12.48;;;18.50;99.90;;;;;;5009267;28;20033;-60
2023/06/23 23:59:25;;;;;;;16.65;12.30;;;18.50;99.90;;;;;;5016249;28;20092;-58
